Time;durP1;ratioP1;P1;durP2;ratioP2;P2;SDS_P1;SDS_P2;PMS_P1;PMS_P2;Temp;Humidity;BMP_temperature;BMP_pressure;BME280_temperature;BME280_humidity;BME280_pressure;Samples;Min_cycle;Max_cycle;Signal;HPM_P1;HPM_P2
2022/02/05 00:08:19;;;;;;;;;;;;;;;8.94;66.38;101273.84;5007920;28;102849;-50
2022/02/05 00:43:10;;;;;;;;;;;;;;;8.92;66.40;101248.84;5008377;28;104232;-48
2022/02/05 00:45:41;;;;;;;;;;;;;;;8.92;66.55;101243.44;5007883;28;102643;-49
2022/02/05 00:48:07;;;;;;;;;;;;;;;8.92;66.49;101242.59;5007555;28;102665;-49
2022/02/05 00:50:37;;;;;;;;;;;;;;;8.92;66.44;101237.19;4998628;28;102775;-51
2022/02/05 00:53:10;;;;;;;;;;;;;;;8.92;66.07;101229.84;5006419;28;103868;-49
2022/02/05 00:55:40;;;;;;;;;;;;;;;8.92;66.14;101238.00;5004971;27;102774;-49
2022/02/05 00:58:07;;;;;;;;;;;;;;;8.92;66.88;101232.56;5001536;28;103771;-50
2022/02/05 01:00:35;;;;;;;;;;;;;;;8.90;66.75;101230.09;5009625;28;102805;-49
2022/02/05 01:03:01;;;;;;;;;;;;;;;8.91;66.74;101230.94;4998578;28;103978;-49
2022/02/05 01:05:27;;;;;;;;;;;;;;;8.92;66.26;101224.44;4995827;28;102283;-49
2022/02/05 01:07:58;;;;;;;;;;;;;;;8.91;66.52;101217.34;5002662;28;102218;-49
2022/02/05 01:10:26;;;;;;;;;;;;;;;8.90;66.59;101219.22;5002121;28;102180;-49
2022/02/05 01:13:00;;;;;;;;;;;;;;;8.92;67.09;101220.91;5002554;28;103989;-49
2022/02/05 01:15:33;;;;;;;;;;;;;;;8.92;66.63;101215.47;5004486;28;105578;-49
2022/02/05 01:18:04;;;;;;;;;;;;;;;8.90;67.07;101219.22;5000459;28;102643;-49
2022/02/05 01:23:36;;;;;;;;;;;;;;;8.92;66.74;101220.91;4997615;28;103917;-49
2022/02/05 01:26:08;;;;;;;;;;;;;;;8.92;66.79;101224.44;5007154;27;102922;-49
2022/02/05 01:28:36;;;;;;;;;;;;;;;8.90;66.40;101224.66;4997904;28;102449;-53
2022/02/05 01:31:03;;;;;;;;;;;;;;;8.90;66.56;101219.22;5010665;27;102598;-49
2022/02/05 01:57:46;;;;;;;;;;;;;;;8.88;66.66;101209.72;5007393;28;102504;-50
2022/02/05 02:16:05;;;;;;;;;;;;;;;8.86;66.88;101206.41;5001554;27;103869;-49
2022/02/05 02:18:42;;;;;;;;;;;;;;;8.86;66.11;101200.97;5004390;28;102617;-49
2022/02/05 02:31:23;;;;;;;;;;;;;;;8.84;66.31;101211.28;5005239;27;102442;-49
2022/02/05 02:33:53;;;;;;;;;;;;;;;8.84;66.80;101214.81;5004471;28;102513;-50
2022/02/05 02:36:38;;;;;;;;;;;;;;;8.84;66.80;101214.81;5007676;27;105109;-50
2022/02/05 02:39:13;;;;;;;;;;;;;;;8.84;66.69;101209.38;5010276;27;102807;-50
2022/02/05 02:41:46;;;;;;;;;;;;;;;8.84;66.67;101209.38;5009679;28;102187;-49
2022/02/05 02:44:12;;;;;;;;;;;;;;;8.83;66.63;101210.44;5011744;27;102683;-51
2022/02/05 02:46:38;;;;;;;;;;;;;;;8.84;66.39;101214.81;5009144;28;103851;-49
2022/02/05 02:49:06;;;;;;;;;;;;;;;8.84;66.68;101211.28;5011545;28;102011;-49
2022/02/05 02:57:18;;;;;;;;;;;;;;;8.84;67.13;101219.41;5009873;27;103875;-49
2022/02/05 02:59:50;;;;;;;;;;;;;;;8.84;66.11;101209.38;5009793;27;102509;-50
2022/02/05 03:02:19;;;;;;;;;;;;;;;8.83;66.55;101207.72;5009368;27;102119;-50
2022/02/05 03:04:46;;;;;;;;;;;;;;;8.83;67.12;101207.72;5009257;27;102650;-50
2022/02/05 03:07:13;;;;;;;;;;;;;;;8.83;66.05;101207.72;5007626;27;103844;-49
2022/02/05 03:09:40;;;;;;;;;;;;;;;8.83;66.17;101202.28;5004003;27;102627;-49
2022/02/05 03:12:06;;;;;;;;;;;;;;;8.83;66.76;101202.28;5011581;27;102671;-48
2022/02/05 03:14:32;;;;;;;;;;;;;;;8.83;65.78;101199.56;5000612;28;102238;-48
2022/02/05 03:17:04;;;;;;;;;;;;;;;8.82;65.95;101192.50;5001367;28;103860;-49
2022/02/05 03:19:31;;;;;;;;;;;;;;;8.82;66.61;101189.78;5008652;27;102509;-49
2022/02/05 03:21:57;;;;;;;;;;;;;;;8.82;66.31;101181.66;5010125;28;102468;-49
2022/02/05 03:24:24;;;;;;;;;;;;;;;8.82;66.32;101184.38;5005926;28;102549;-49
2022/02/05 03:26:50;;;;;;;;;;;;;;;8.82;66.25;101178.94;5003113;27;103691;-48
2022/02/05 03:29:17;;;;;;;;;;;;;;;8.82;66.72;101178.94;5008068;27;102575;-49
2022/02/05 03:31:43;;;;;;;;;;;;;;;8.84;66.89;101186.84;5006644;27;102396;-49
2022/02/05 03:34:09;;;;;;;;;;;;;;;8.81;66.17;101171.88;5023263;27;102305;-49
2022/02/05 03:36:40;;;;;;;;;;;;;;;8.82;66.20;101180.84;5007395;27;103858;-50
2022/02/05 03:39:07;;;;;;;;;;;;;;;8.80;66.51;101181.09;5004868;28;102263;-49
2022/02/05 03:41:35;;;;;;;;;;;;;;;8.81;66.38;101180.00;5004537;28;102517;-49
2022/02/05 03:44:01;;;;;;;;;;;;;;;8.81;66.62;101187.34;5010260;27;102223;-49
2022/02/05 03:46:29;;;;;;;;;;;;;;;8.81;66.57;101192.78;5006787;28;104078;-49
2022/02/05 03:48:56;;;;;;;;;;;;;;;8.80;66.87;101181.09;5002415;28;102493;-49
2022/02/05 03:51:22;;;;;;;;;;;;;;;8.80;66.29;101186.53;5007915;27;102543;-49
2022/02/05 03:53:48;;;;;;;;;;;;;;;8.79;66.13;101184.84;5010829;28;102431;-50
2022/02/05 03:56:14;;;;;;;;;;;;;;;8.80;66.29;101181.09;5007397;27;103964;-49
2022/02/05 03:58:41;;;;;;;;;;;;;;;8.78;66.59;101183.22;5006963;28;102405;-48
2022/02/05 04:01:08;;;;;;;;;;;;;;;8.80;66.31;101191.09;5005972;27;102259;-49
2022/02/05 04:03:34;;;;;;;;;;;;;;;8.79;66.35;101195.72;5010163;27;102386;-49
2022/02/05 04:06:00;;;;;;;;;;;;;;;8.79;66.90;101195.72;5006771;27;103842;-49
2022/02/05 04:08:26;;;;;;;;;;;;;;;8.78;66.10;101191.38;5009897;28;102254;-49
2022/02/05 04:11:04;;;;;;;;;;;;;;;8.79;65.82;101194.91;5000831;28;102317;-49
2022/02/05 04:16:25;;;;;;;;;;;;;;;8.77;66.00;101187.00;5002457;27;107896;-49
2022/02/05 04:18:52;;;;;;;;;;;;;;;8.77;66.11;101192.44;5005611;28;102789;-49
2022/02/05 04:21:19;;;;;;;;;;;;;;;8.77;66.45;101197.88;5007906;27;102526;-49
2022/02/05 04:23:47;;;;;;;;;;;;;;;8.77;66.26;101200.59;5010207;27;102646;-49
2022/02/05 04:26:15;;;;;;;;;;;;;;;8.77;66.67;101200.59;5001052;27;103907;-48
2022/02/05 04:28:41;;;;;;;;;;;;;;;8.77;66.30;101192.44;4997681;28;102761;-49
2022/02/05 04:31:08;;;;;;;;;;;;;;;8.77;66.56;101188.91;4998969;28;102664;-50
2022/02/05 04:33:36;;;;;;;;;;;;;;;8.77;66.20;101191.63;5009678;28;102173;-49
2022/02/05 04:36:02;;;;;;;;;;;;;;;8.77;66.63;101191.63;5007140;28;103876;-49
2022/02/05 04:38:30;;;;;;;;;;;;;;;8.75;66.19;101197.28;5012438;27;102428;-49
2022/02/05 04:41:03;;;;;;;;;;;;;;;8.76;66.80;101190.78;5008105;28;102064;-49
2022/02/05 04:56:39;;;;;;;;;;;;;;;8.75;66.38;101183.72;5008171;28;104106;-49
2022/02/05 05:01:47;;;;;;;;;;;;;;;8.74;67.02;101187.50;5003009;28;102805;-51
2022/02/05 05:04:27;;;;;;;;;;;;;;;8.75;66.98;101194.56;4998641;28;102137;-49
2022/02/05 05:09:54;;;;;;;;;;;;;;;8.73;66.52;101199.44;5004929;28;102724;-50
2022/02/05 05:20:16;;;;;;;;;;;;;;;8.73;66.79;101195.88;5007016;28;102488;-48
2022/02/05 05:22:43;;;;;;;;;;;;;;;8.73;66.71;101191.28;5011228;27;102406;-49
2022/02/05 05:25:09;;;;;;;;;;;;;;;8.72;67.09;101195.06;5008934;28;102700;-48
2022/02/05 05:27:47;;;;;;;;;;;;;;;8.71;66.61;101204.28;4990293;28;104087;-49
2022/02/05 05:30:13;;;;;;;;;;;;;;;8.71;66.27;101201.56;5007652;27;102573;-49
2022/02/05 05:32:39;;;;;;;;;;;;;;;8.71;66.10;101209.69;5008430;28;102269;-48
2022/02/05 05:35:06;;;;;;;;;;;;;;;8.72;65.83;101208.63;5002362;27;102208;-50
2022/02/05 05:37:32;;;;;;;;;;;;;;;8.71;66.32;101207.00;5004308;28;103763;-50
2022/02/05 05:40:00;;;;;;;;;;;;;;;8.71;67.05;101204.28;5006620;27;102260;-49
2022/02/05 05:42:32;;;;;;;;;;;;;;;8.71;66.05;101209.69;5005204;28;102091;-48
2022/02/05 05:45:21;;;;;;;;;;;;;;;8.70;66.20;101208.06;5008340;28;102524;-48
2022/02/05 05:48:04;;;;;;;;;;;;;;;8.71;66.46;101219.75;5005291;28;103988;-48
2022/02/05 05:53:06;;;;;;;;;;;;;;;8.71;66.30;101209.69;5006082;28;102717;-49
2022/02/05 05:55:34;;;;;;;;;;;;;;;8.70;66.04;101210.78;5008316;28;103679;-49
2022/02/05 05:58:00;;;;;;;;;;;;;;;8.69;66.55;101206.44;4997899;27;103874;-48
2022/02/05 06:00:27;;;;;;;;;;;;;;;8.69;66.50;101211.84;5005908;28;102341;-49
2022/02/05 06:02:53;;;;;;;;;;;;;;;8.69;66.55;101206.44;5012153;28;102604;-49
2022/02/05 06:05:19;;;;;;;;;;;;;;;8.69;66.00;101211.84;4997618;28;102761;-49
2022/02/05 06:07:46;;;;;;;;;;;;;;;8.69;66.32;101208.28;4998274;28;103499;-49
2022/02/05 06:10:12;;;;;;;;;;;;;;;8.69;65.86;101206.44;5005519;28;102348;-48
2022/02/05 06:12:40;;;;;;;;;;;;;;;8.69;66.01;101203.72;5007432;28;102543;-49
2022/02/05 06:15:08;;;;;;;;;;;;;;;8.69;66.53;101211.84;5004765;28;102629;-49
2022/02/05 06:17:35;;;;;;;;;;;;;;;8.68;66.10;101204.75;5006352;27;104158;-49
2022/02/05 06:20:02;;;;;;;;;;;;;;;8.69;66.07;101211.00;5006294;28;106508;-49
2022/02/05 06:22:29;;;;;;;;;;;;;;;8.68;67.08;101210.19;5009594;28;102812;-49
2022/02/05 06:24:55;;;;;;;;;;;;;;;8.69;66.62;101208.28;5008182;28;102223;-49
2022/02/05 06:27:21;;;;;;;;;;;;;;;8.69;66.41;101203.72;5006060;28;103857;-49
2022/02/05 06:29:49;;;;;;;;;;;;;;;8.68;66.53;101210.19;5003953;28;103778;-49
2022/02/05 06:32:17;;;;;;;;;;;;;;;8.69;66.72;101200.16;5008925;28;102737;-49
2022/02/05 06:34:43;;;;;;;;;;;;;;;8.69;66.10;101208.28;5014105;27;102379;-50
2022/02/05 06:37:09;;;;;;;;;;;;;;;8.69;65.99;101195.56;5010520;28;104026;-50
2022/02/05 06:39:36;;;;;;;;;;;;;;;8.68;66.23;101199.34;5007682;27;105304;-49
2022/02/05 06:42:02;;;;;;;;;;;;;;;8.68;66.02;101199.34;5004135;27;102422;-49
2022/02/05 06:44:29;;;;;;;;;;;;;;;8.68;66.97;101202.06;5001344;27;102669;-49
2022/02/05 06:46:56;;;;;;;;;;;;;;;8.66;66.51;101188.75;5002308;28;103969;-50
2022/02/05 06:49:26;;;;;;;;;;;;;;;8.68;66.08;101188.47;5000483;28;102866;-49
2022/02/05 06:51:52;;;;;;;;;;;;;;;8.67;66.76;101181.41;5012789;27;102304;-49
2022/02/05 06:54:18;;;;;;;;;;;;;;;8.67;67.08;101184.13;5011711;27;102400;-49
2022/02/05 06:56:45;;;;;;;;;;;;;;;8.67;66.63;101189.56;5007216;27;104023;-49
2022/02/05 06:59:11;;;;;;;;;;;;;;;8.68;66.07;101183.06;5005109;27;102737;-49
2022/02/05 07:01:37;;;;;;;;;;;;;;;8.67;65.88;101189.56;5006285;27;102393;-49
2022/02/05 07:04:05;;;;;;;;;;;;;;;8.66;66.52;101186.03;5006137;28;102618;-49
2022/02/05 07:06:31;;;;;;;;;;;;;;;8.67;66.50;101197.69;5005251;27;103874;-48
2022/02/05 07:08:58;;;;;;;;;;;;;;;8.66;66.93;101186.03;5010163;27;102591;-50
2022/02/05 07:11:24;;;;;;;;;;;;;;;8.68;66.47;101184.94;5011299;27;102222;-48
2022/02/05 07:13:53;;;;;;;;;;;;;;;8.66;66.46;101177.06;5005490;28;102804;-49
2022/02/05 07:16:36;;;;;;;;;;;;;;;8.66;66.39;101180.59;5008471;28;103895;-49
2022/02/05 07:19:22;;;;;;;;;;;;;;;8.66;65.94;101179.78;5009712;28;102312;-50
2022/02/05 07:21:52;;;;;;;;;;;;;;;8.65;66.41;101168.13;5017127;27;102804;-48
2022/02/05 07:29:31;;;;;;;;;;;;;;;8.66;66.70;101158.09;4996979;27;102232;-50
2022/02/05 07:31:58;;;;;;;;;;;;;;;8.64;66.02;101149.34;5019320;27;102374;-49
2022/02/05 07:34:26;;;;;;;;;;;;;;;8.65;66.22;101140.13;5006917;27;106173;-49
2022/02/05 07:36:59;;;;;;;;;;;;;;;8.64;66.54;101135.78;5007165;28;104031;-49
2022/02/05 07:39:25;;;;;;;;;;;;;;;8.64;66.31;101130.34;5001878;27;106414;-49
2022/02/05 07:41:51;;;;;;;;;;;;;;;8.64;66.38;101133.06;5012909;27;102639;-48
2022/02/05 07:44:17;;;;;;;;;;;;;;;8.64;66.43;101122.22;5011029;27;102287;-49
2022/02/05 07:46:47;;;;;;;;;;;;;;;8.63;66.48;101121.41;5007086;28;103968;-49
2022/02/05 07:49:14;;;;;;;;;;;;;;;8.62;66.61;101117.06;5008839;28;102379;-49
2022/02/05 07:51:40;;;;;;;;;;;;;;;8.62;65.78;101111.63;5003730;27;102147;-49
2022/02/05 07:54:10;;;;;;;;;;;;;;;8.62;67.05;101108.09;5004323;28;102208;-49
2022/02/05 07:56:37;;;;;;;;;;;;;;;8.62;66.63;101125.19;5002741;28;104026;-49
2022/02/05 07:59:03;;;;;;;;;;;;;;;8.61;66.50;101139.00;4999263;28;102247;-49
2022/02/05 08:01:32;;;;;;;;;;;;;;;8.62;66.45;101154.22;4999344;28;102565;-48
2022/02/05 08:03:58;;;;;;;;;;;;;;;8.63;66.00;101147.72;5015815;28;102307;-50
2022/02/05 08:06:24;;;;;;;;;;;;;;;8.62;66.46;101129.81;5009073;27;103906;-48
2022/02/05 08:08:54;;;;;;;;;;;;;;;8.62;66.35;101132.53;5001793;28;102340;-49
2022/02/05 08:11:31;;;;;;;;;;;;;;;8.63;66.00;101134.97;5008600;27;102027;-49
2022/02/05 08:13:57;;;;;;;;;;;;;;;8.62;66.16;101130.63;4999923;28;102198;-50
2022/02/05 08:16:47;;;;;;;;;;;;;;;8.63;66.53;101132.25;5000007;27;103872;-49
2022/02/05 08:19:15;;;;;;;;;;;;;;;8.62;66.77;101125.19;5008197;27;102611;-48
2022/02/05 08:21:41;;;;;;;;;;;;;;;8.63;66.33;101120.59;5003589;28;102057;-48
2022/02/05 08:24:07;;;;;;;;;;;;;;;8.62;66.58;101108.91;5003152;28;103000;-49
2022/02/05 08:26:35;;;;;;;;;;;;;;;8.63;66.46;101112.44;4999773;28;104023;-51
2022/02/05 08:29:02;;;;;;;;;;;;;;;8.63;66.40;101115.16;4998524;27;102676;-49
2022/02/05 08:31:29;;;;;;;;;;;;;;;8.63;66.43;101120.59;4995096;28;106099;-50
2022/02/05 08:33:55;;;;;;;;;;;;;;;8.63;66.12;101115.97;4997404;28;102658;-49
2022/02/05 08:36:23;;;;;;;;;;;;;;;8.63;66.04;101121.41;5000349;27;103899;-49
2022/02/05 08:38:49;;;;;;;;;;;;;;;8.64;65.71;101122.22;5008227;28;102463;-49
2022/02/05 08:41:15;;;;;;;;;;;;;;;8.63;66.68;101117.88;5005689;28;102124;-49
2022/02/05 08:43:43;;;;;;;;;;;;;;;8.64;66.34;101119.50;5011570;27;102622;-49
2022/02/05 08:46:09;;;;;;;;;;;;;;;8.64;66.62;101123.03;5003065;28;103739;-49
2022/02/05 08:48:35;;;;;;;;;;;;;;;8.64;66.52;101116.78;4998525;28;102370;-49
2022/02/05 08:51:01;;;;;;;;;;;;;;;8.63;66.33;101115.97;5008168;28;102179;-50
2022/02/05 08:53:27;;;;;;;;;;;;;;;8.63;66.56;101126.81;5007774;27;102674;-49
2022/02/05 08:55:54;;;;;;;;;;;;;;;8.64;66.15;101133.06;5007375;28;103842;-49
2022/02/05 08:58:20;;;;;;;;;;;;;;;8.63;66.04;101131.44;5008307;27;102227;-49
2022/02/05 09:00:49;;;;;;;;;;;;;;;8.63;65.97;101126.81;5007576;27;102358;-49
2022/02/05 09:04:01;;;;;;;;;;;;;;;8.63;65.90;101126.00;5007492;28;103537;-49
2022/02/05 09:06:08;;;;;;;;;;;;;;;8.64;66.18;101124.94;4992208;28;107708;-49
2022/02/05 09:08:40;;;;;;;;;;;;;;;8.64;66.70;101133.88;5003294;28;102410;-49
2022/02/05 09:16:50;;;;;;;;;;;;;;;8.64;65.92;101116.78;4988886;28;103992;-49
2022/02/05 09:19:16;;;;;;;;;;;;;;;8.64;65.86;101119.50;5000232;27;102537;-49
2022/02/05 09:21:42;;;;;;;;;;;;;;;8.63;66.43;101121.41;4999067;28;102395;-48
2022/02/05 09:24:08;;;;;;;;;;;;;;;8.64;66.52;101124.94;5005566;28;102808;-50
2022/02/05 09:26:35;;;;;;;;;;;;;;;8.65;65.71;101118.44;4999109;28;104118;-49
2022/02/05 09:29:10;;;;;;;;;;;;;;;8.63;66.66;101110.56;5006694;28;102663;-51
2022/02/05 09:31:36;;;;;;;;;;;;;;;8.64;65.71;101105.94;5007991;28;102326;-49
2022/02/05 09:34:07;;;;;;;;;;;;;;;8.64;66.29;101103.22;5004445;27;102284;-48
2022/02/05 09:36:35;;;;;;;;;;;;;;;8.65;66.54;101099.44;5006513;28;103607;-50
2022/02/05 09:39:01;;;;;;;;;;;;;;;8.64;66.17;101095.91;5007310;28;102133;-49
2022/02/05 09:41:27;;;;;;;;;;;;;;;8.64;66.43;101089.66;5006087;28;102245;-49
2022/02/05 09:43:53;;;;;;;;;;;;;;;8.64;65.71;101090.47;5005996;27;102956;-49
2022/02/05 09:46:20;;;;;;;;;;;;;;;8.63;66.53;101083.41;5003666;28;104167;-48
2022/02/05 09:48:48;;;;;;;;;;;;;;;8.65;66.52;101080.44;5002650;28;102648;-50
2022/02/05 09:51:18;;;;;;;;;;;;;;;8.65;66.22;101077.72;4995638;28;102590;-49
2022/02/05 09:53:45;;;;;;;;;;;;;;;8.64;65.93;101068.78;5007379;28;102294;-49
2022/02/05 09:56:11;;;;;;;;;;;;;;;8.64;65.99;101073.38;5005202;28;104098;-48
2022/02/05 09:58:37;;;;;;;;;;;;;;;8.64;66.07;101067.97;5008248;28;102744;-48
2022/02/05 10:01:09;;;;;;;;;;;;;;;8.64;66.55;101085.06;5007587;28;102639;-49
2022/02/05 10:03:37;;;;;;;;;;;;;;;8.66;66.44;101082.09;5008599;28;102431;-50
2022/02/05 10:06:03;;;;;;;;;;;;;;;8.64;66.33;101067.97;5007080;27;103928;-48
2022/02/05 10:08:32;;;;;;;;;;;;;;;8.65;66.56;101067.72;4997596;28;102831;-49
2022/02/05 10:10:59;;;;;;;;;;;;;;;8.64;66.11;101063.34;5005888;28;103381;-49
2022/02/05 10:13:27;;;;;;;;;;;;;;;8.66;66.09;101071.25;5005571;27;102266;-49
2022/02/05 10:15:55;;;;;;;;;;;;;;;8.66;65.71;101065.81;5002468;28;103856;-49
2022/02/05 10:18:22;;;;;;;;;;;;;;;8.65;66.21;101058.75;5005995;28;102468;-49
2022/02/05 10:20:48;;;;;;;;;;;;;;;8.66;66.34;101068.53;5007144;27;102578;-49
2022/02/05 10:23:14;;;;;;;;;;;;;;;8.66;66.48;101065.81;5011607;27;102823;-48
2022/02/05 10:25:42;;;;;;;;;;;;;;;8.66;66.12;101057.69;5009437;28;103903;-50
2022/02/05 10:28:09;;;;;;;;;;;;;;;8.67;66.21;101059.31;5010283;27;102176;-49
2022/02/05 10:30:35;;;;;;;;;;;;;;;8.67;65.76;101051.19;5010254;27;102843;-50
2022/02/05 10:33:05;;;;;;;;;;;;;;;8.67;66.37;101045.75;5006011;27;103050;-49
2022/02/05 10:35:41;;;;;;;;;;;;;;;8.67;66.41;101040.31;4997832;28;107846;-50
2022/02/05 10:41:00;;;;;;;;;;;;;;;8.68;66.49;101028.41;5004968;28;102519;-49
2022/02/05 10:43:32;;;;;;;;;;;;;;;8.69;66.43;101031.94;5006037;27;102507;-49
2022/02/05 10:46:01;;;;;;;;;;;;;;;8.69;65.69;101016.50;5009061;27;103963;-49
2022/02/05 10:48:27;;;;;;;;;;;;;;;8.69;66.65;101008.34;5006303;27;102228;-49
2022/02/05 10:50:55;;;;;;;;;;;;;;;8.70;66.09;101020.84;5009389;27;102721;-49
2022/02/05 10:53:26;;;;;;;;;;;;;;;8.69;66.53;101019.22;5011685;28;102334;-50
2022/02/05 10:58:46;;;;;;;;;;;;;;;8.70;66.69;101023.56;5010714;27;102540;-50
2022/02/05 11:06:53;;;;;;;;;;;;;;;8.70;66.32;101018.13;4999663;28;104060;-49
2022/02/05 11:09:20;;;;;;;;;;;;;;;8.72;66.08;101026.81;5010520;28;102362;-50
2022/02/05 11:20:10;;;;;;;;;;;;;;;8.73;66.63;101005.94;5008784;27;102564;-49
2022/02/05 11:22:39;;;;;;;;;;;;;;;8.72;66.54;100999.69;5006191;27;102013;-49
2022/02/05 11:25:07;;;;;;;;;;;;;;;8.74;66.20;100996.75;5008697;27;102846;-49
2022/02/05 11:27:33;;;;;;;;;;;;;;;8.75;66.07;100995.66;5008806;27;103887;-49
2022/02/05 11:30:15;;;;;;;;;;;;;;;8.75;66.54;100996.47;5011696;28;102345;-49
2022/02/05 11:32:50;;;;;;;;;;;;;;;8.74;66.52;100996.75;5010079;28;102647;-49
2022/02/05 11:35:29;;;;;;;;;;;;;;;8.74;66.54;100997.56;5004362;28;102676;-48
2022/02/05 11:37:56;;;;;;;;;;;;;;;8.75;66.87;101001.91;5007867;27;103505;-49
2022/02/05 11:40:43;;;;;;;;;;;;;;;8.74;66.54;100986.69;5010534;27;103085;-49
2022/02/05 11:43:19;;;;;;;;;;;;;;;8.76;66.10;100983.72;5002560;28;102272;-49
2022/02/05 11:46:04;;;;;;;;;;;;;;;8.76;66.86;100979.09;4998073;28;102663;-49
2022/02/05 11:48:41;;;;;;;;;;;;;;;8.76;66.46;100984.53;5004890;28;103708;-49
2022/02/05 11:51:12;;;;;;;;;;;;;;;8.77;66.67;100996.25;5001428;28;102609;-49
2022/02/05 11:54:00;;;;;;;;;;;;;;;8.77;67.08;100988.09;5006925;27;102540;-49
2022/02/05 11:56:47;;;;;;;;;;;;;;;8.77;66.38;100983.47;5004520;28;102281;-49
2022/02/05 11:59:14;;;;;;;;;;;;;;;8.78;66.26;100981.59;5005165;28;104032;-49
2022/02/05 12:01:40;;;;;;;;;;;;;;;8.77;66.52;100980.78;5008315;27;102320;-50
2022/02/05 12:04:12;;;;;;;;;;;;;;;8.78;66.25;100976.97;5009764;28;102482;-49
2022/02/05 12:06:46;;;;;;;;;;;;;;;8.79;66.08;100977.78;5008888;27;102350;-49
2022/02/05 12:09:31;;;;;;;;;;;;;;;8.79;66.38;100972.38;5007042;28;104226;-49
2022/02/05 12:12:17;;;;;;;;;;;;;;;8.79;66.16;100977.78;5003934;28;102660;-49
2022/02/05 12:14:58;;;;;;;;;;;;;;;8.79;65.92;100973.19;5000074;27;102775;-49
2022/02/05 12:17:28;;;;;;;;;;;;;;;8.79;67.04;100970.47;5007680;28;102829;-49
2022/02/05 12:20:00;;;;;;;;;;;;;;;8.80;66.48;100969.41;5003880;28;104044;-49
2022/02/05 12:22:40;;;;;;;;;;;;;;;8.79;66.62;100970.47;5006523;28;102275;-48
2022/02/05 12:25:16;;;;;;;;;;;;;;;8.79;67.15;100962.31;5007349;28;102188;-49
2022/02/05 12:27:43;;;;;;;;;;;;;;;8.81;67.04;100962.91;5008529;27;102544;-50
2022/02/05 12:30:38;;;;;;;;;;;;;;;8.81;66.36;100959.38;5007591;27;103917;-49
2022/02/05 12:33:05;;;;;;;;;;;;;;;8.80;66.04;100947.72;5007575;28;102453;-49
2022/02/05 12:35:34;;;;;;;;;;;;;;;8.81;66.38;100952.06;5010618;27;102443;-49
2022/02/05 12:38:00;;;;;;;;;;;;;;;8.81;66.79;100949.34;5011133;27;102842;-49
2022/02/05 12:40:26;;;;;;;;;;;;;;;8.81;66.32;100951.22;5006345;28;103903;-49
2022/02/05 12:42:52;;;;;;;;;;;;;;;8.83;66.10;100946.34;5010705;28;102144;-49
2022/02/05 12:45:25;;;;;;;;;;;;;;;8.81;66.06;100943.91;5005991;28;102617;-49
2022/02/05 12:47:53;;;;;;;;;;;;;;;8.82;65.99;100950.97;5008912;27;102419;-48
2022/02/05 12:50:24;;;;;;;;;;;;;;;8.83;66.29;100949.88;5007769;27;104322;-50
2022/02/05 12:52:52;;;;;;;;;;;;;;;8.83;67.03;100949.06;5007167;28;102617;-49
2022/02/05 12:55:22;;;;;;;;;;;;;;;8.82;66.10;100945.53;5007143;28;102265;-50
2022/02/05 12:57:58;;;;;;;;;;;;;;;8.84;67.07;100948.00;5007795;27;102349;-49
2022/02/05 13:00:24;;;;;;;;;;;;;;;8.84;66.25;100948.84;5007677;27;103885;-49
2022/02/05 13:02:50;;;;;;;;;;;;;;;8.84;67.21;100945.31;5007380;28;102588;-49
2022/02/05 13:05:16;;;;;;;;;;;;;;;8.84;66.87;100943.41;5004729;28;102535;-51
2022/02/05 13:07:42;;;;;;;;;;;;;;;8.84;66.87;100951.53;4995125;28;102627;-48
2022/02/05 13:10:10;;;;;;;;;;;;;;;8.84;66.88;100951.53;5000817;28;103890;-49
2022/02/05 13:12:43;;;;;;;;;;;;;;;8.84;66.58;100954.25;5006032;28;102263;-49
2022/02/05 13:15:20;;;;;;;;;;;;;;;8.86;66.77;100956.72;5003746;28;103244;-49
2022/02/05 13:24:42;;;;;;;;;;;;;;;8.85;66.23;100955.91;5001960;28;103991;-49
2022/02/05 13:36:05;;;;;;;;;;;;;;;8.86;66.06;100924.97;4998742;27;102898;-49
2022/02/05 13:38:38;;;;;;;;;;;;;;;8.86;66.01;100919.53;5007262;28;102394;-48
2022/02/05 13:41:06;;;;;;;;;;;;;;;8.86;66.57;100907.84;5000610;27;104124;-49
2022/02/05 13:43:43;;;;;;;;;;;;;;;8.86;66.37;100914.09;5006994;28;102563;-49
2022/02/05 13:46:10;;;;;;;;;;;;;;;8.86;66.67;100919.53;5005236;28;102420;-48
2022/02/05 13:48:37;;;;;;;;;;;;;;;8.86;66.42;100916.81;5004021;27;102529;-48
2022/02/05 13:51:03;;;;;;;;;;;;;;;8.85;65.91;100907.03;4999878;28;104079;-48
2022/02/05 13:53:30;;;;;;;;;;;;;;;8.86;66.79;100914.09;4995863;28;102209;-48
2022/02/05 13:55:56;;;;;;;;;;;;;;;8.86;66.13;100908.66;5006078;27;102609;-49
2022/02/05 13:58:23;;;;;;;;;;;;;;;8.87;66.86;100915.75;5001599;28;102572;-49
2022/02/05 14:00:52;;;;;;;;;;;;;;;8.86;66.50;100908.66;4999242;28;103919;-48
2022/02/05 14:03:26;;;;;;;;;;;;;;;8.86;66.24;100916.81;5001792;27;103570;-49
2022/02/05 14:06:03;;;;;;;;;;;;;;;8.86;66.70;100914.09;5004182;27;102444;-49
2022/02/05 14:08:30;;;;;;;;;;;;;;;8.86;66.64;100907.84;5011261;27;102504;-49
2022/02/05 14:10:57;;;;;;;;;;;;;;;8.87;66.64;100910.34;5006780;27;103615;-49
2022/02/05 14:13:25;;;;;;;;;;;;;;;8.87;66.41;100907.63;5002994;28;102237;-49
2022/02/05 14:15:59;;;;;;;;;;;;;;;8.87;66.43;100907.63;4999709;28;102706;-48
2022/02/05 14:18:26;;;;;;;;;;;;;;;8.86;66.61;100908.66;5004533;28;103594;-49
2022/02/05 14:20:54;;;;;;;;;;;;;;;8.87;66.85;100906.78;5012945;28;103979;-49
2022/02/05 14:23:22;;;;;;;;;;;;;;;8.87;66.30;100904.91;5010122;27;104107;-50
2022/02/05 14:25:50;;;;;;;;;;;;;;;8.87;66.36;100904.91;5010014;27;102085;-49
2022/02/05 14:28:26;;;;;;;;;;;;;;;8.87;66.30;100904.91;5012058;27;102176;-50
2022/02/05 14:31:07;;;;;;;;;;;;;;;8.88;66.66;100898.38;5008118;27;103453;-49
2022/02/05 14:36:36;;;;;;;;;;;;;;;8.88;66.92;100906.53;5005086;27;102507;-49
2022/02/05 14:41:48;;;;;;;;;;;;;;;8.88;66.72;100911.97;5002850;28;103883;-48
2022/02/05 14:44:15;;;;;;;;;;;;;;;8.88;66.29;100920.09;5010297;27;102881;-49
2022/02/05 14:46:43;;;;;;;;;;;;;;;8.88;66.43;100922.81;5006336;27;102712;-49
2022/02/05 14:49:09;;;;;;;;;;;;;;;8.88;66.94;100933.69;5011027;27;102597;-49
2022/02/05 14:51:36;;;;;;;;;;;;;;;8.88;66.40;100928.25;5008616;27;103891;-49
2022/02/05 14:54:02;;;;;;;;;;;;;;;8.88;66.72;100928.25;5001200;28;102173;-49
2022/02/05 14:56:29;;;;;;;;;;;;;;;8.88;66.74;100930.97;5007778;27;102383;-50
2022/02/05 14:58:56;;;;;;;;;;;;;;;8.88;66.23;100925.53;5007199;27;102395;-49
2022/02/05 15:01:24;;;;;;;;;;;;;;;8.88;66.40;100925.53;5008833;27;107861;-49
2022/02/05 15:03:53;;;;;;;;;;;;;;;8.89;66.32;100932.59;5009016;27;102826;-49
2022/02/05 15:06:26;;;;;;;;;;;;;;;8.89;66.54;100938.03;5007048;27;102360;-49
2022/02/05 15:08:53;;;;;;;;;;;;;;;8.88;67.08;100930.97;5005487;28;102158;-50
2022/02/05 15:11:19;;;;;;;;;;;;;;;8.90;66.75;100941.56;5001464;28;103944;-48
2022/02/05 15:13:46;;;;;;;;;;;;;;;8.89;66.09;100946.16;5003287;28;102462;-49
2022/02/05 15:16:16;;;;;;;;;;;;;;;8.90;66.44;100942.38;5003308;27;102386;-50
2022/02/05 15:18:57;;;;;;;;;;;;;;;8.90;66.18;100941.56;5002456;28;103741;-49
2022/02/05 15:21:25;;;;;;;;;;;;;;;8.89;66.76;100935.31;5001451;27;103944;-49
2022/02/05 15:23:51;;;;;;;;;;;;;;;8.90;66.26;100926.09;5010131;27;102046;-51
2022/02/05 15:26:18;;;;;;;;;;;;;;;8.92;66.53;100927.75;5009364;28;102314;-50
2022/02/05 15:28:44;;;;;;;;;;;;;;;8.90;66.69;100915.22;5010041;27;102254;-49
2022/02/05 15:31:10;;;;;;;;;;;;;;;8.92;66.81;100916.88;5009165;27;103855;-49
2022/02/05 15:33:43;;;;;;;;;;;;;;;8.92;66.53;100919.59;5009404;28;102360;-49
2022/02/05 15:36:12;;;;;;;;;;;;;;;8.92;66.81;100925.03;5007096;28;102229;-49
2022/02/05 15:39:09;;;;;;;;;;;;;;;8.93;66.41;100940.22;5008327;28;102342;-49
2022/02/05 15:44:11;;;;;;;;;;;;;;;8.95;66.67;100948.94;5003755;27;102793;-49
2022/02/05 15:46:37;;;;;;;;;;;;;;;8.94;66.67;100948.09;4999832;28;102722;-49
2022/02/05 15:49:04;;;;;;;;;;;;;;;8.95;66.58;100959.81;5007120;28;104842;-48
2022/02/05 15:51:32;;;;;;;;;;;;;;;8.96;67.18;100956.00;4999741;28;103681;-48